createdAt,value
2018-12-06T00:02:06.734Z,5.10
2018-12-06T00:04:34.854Z,5.10
2018-12-06T00:07:03.030Z,5.10
2018-12-06T00:09:31.174Z,5.10
2018-12-06T00:11:59.360Z,5.20
2018-12-06T00:14:27.459Z,5.20
2018-12-06T00:16:56.139Z,5.20
2018-12-06T00:19:24.205Z,5.20
2018-12-06T00:21:52.272Z,5.20
2018-12-06T00:24:20.451Z,5.10
2018-12-06T00:26:48.567Z,5.10
2018-12-06T00:29:16.691Z,5.10
2018-12-06T00:31:45.685Z,5.10
2018-12-06T00:34:13.829Z,5.10
2018-12-06T00:36:41.975Z,5.10
2018-12-06T00:39:10.078Z,5.10
2018-12-06T00:41:38.181Z,5.10
2018-12-06T00:44:06.447Z,5.00
2018-12-06T00:46:34.659Z,5.00
2018-12-06T00:49:02.787Z,5.00
2018-12-06T00:51:30.991Z,5.00
2018-12-06T00:53:59.086Z,5.00
2018-12-06T00:56:27.249Z,5.00
2018-12-06T00:58:55.319Z,5.00
2018-12-06T01:01:23.394Z,5.00
2018-12-06T01:03:51.514Z,5.00
2018-12-06T01:06:19.559Z,5.00
2018-12-06T01:08:47.679Z,4.90
2018-12-06T01:11:15.848Z,5.00
2018-12-06T01:13:43.972Z,5.00
2018-12-06T01:16:12.082Z,5.00
2018-12-06T01:18:40.159Z,5.00
2018-12-06T01:21:08.239Z,5.30
2018-12-06T01:23:36.299Z,5.40
2018-12-06T01:26:04.372Z,5.80
2018-12-06T01:28:32.353Z,5.70
2018-12-06T01:31:00.514Z,5.60
2018-12-06T01:33:28.587Z,5.60
2018-12-06T01:35:56.862Z,5.70
2018-12-06T01:38:24.973Z,5.80
2018-12-06T01:40:53.075Z,5.60
2018-12-06T01:43:21.312Z,5.40
2018-12-06T01:45:49.539Z,5.30
2018-12-06T01:48:18.249Z,5.30
2018-12-06T01:50:46.367Z,5.20
2018-12-06T01:53:14.457Z,5.20
2018-12-06T01:55:42.567Z,5.20
2018-12-06T01:58:10.663Z,5.20
2018-12-06T02:00:38.790Z,5.20
2018-12-06T02:03:06.872Z,5.20
2018-12-06T02:05:34.887Z,5.10
2018-12-06T02:08:03.003Z,5.20
2018-12-06T02:10:31.201Z,5.20
2018-12-06T02:12:59.427Z,5.20
2018-12-06T02:15:27.519Z,5.20
2018-12-06T02:17:55.583Z,5.10
2018-12-06T02:20:23.719Z,5.10
2018-12-06T02:22:51.803Z,5.10
2018-12-06T02:25:19.891Z,5.20
2018-12-06T02:27:47.971Z,5.20
2018-12-06T02:30:16.117Z,5.20
2018-12-06T02:32:44.294Z,5.20
2018-12-06T02:35:12.517Z,5.20
2018-12-06T02:37:40.547Z,5.20
2018-12-06T02:40:08.917Z,5.30
2018-12-06T02:42:37.199Z,5.20
2018-12-06T02:45:05.549Z,5.20
2018-12-06T02:47:33.677Z,5.20
2018-12-06T02:50:01.868Z,5.20
2018-12-06T02:52:29.995Z,5.30
2018-12-06T02:54:58.067Z,5.30
2018-12-06T02:57:26.440Z,5.30
2018-12-06T02:59:54.572Z,5.20
2018-12-06T03:02:22.649Z,5.30
2018-12-06T03:04:50.783Z,5.30
2018-12-06T03:07:18.930Z,5.30
2018-12-06T03:09:47.063Z,5.30
2018-12-06T03:12:15.255Z,5.30
2018-12-06T03:14:43.678Z,5.30
2018-12-06T03:17:11.740Z,5.30
2018-12-06T03:19:39.892Z,5.30
2018-12-06T03:22:08.095Z,5.40
2018-12-06T03:24:36.088Z,5.40
2018-12-06T03:27:04.231Z,5.40
2018-12-06T03:29:32.393Z,5.40
2018-12-06T03:32:00.486Z,5.40
2018-12-06T03:34:28.608Z,5.40
2018-12-06T03:36:56.779Z,5.40
2018-12-06T03:39:24.852Z,5.40
2018-12-06T03:41:53.027Z,5.40
2018-12-06T03:44:21.230Z,5.40
2018-12-06T03:46:49.701Z,5.40
2018-12-06T03:49:17.872Z,5.40
2018-12-06T03:51:46.063Z,5.40
2018-12-06T03:54:14.125Z,5.40
2018-12-06T03:56:42.300Z,5.40
2018-12-06T03:59:10.350Z,5.40
2018-12-06T04:01:38.478Z,5.40
2018-12-06T04:04:06.634Z,5.40
2018-12-06T04:06:34.806Z,5.50
2018-12-06T04:09:03.306Z,5.40
2018-12-06T04:11:31.460Z,5.50
2018-12-06T04:13:59.947Z,5.50
2018-12-06T04:16:27.986Z,5.50
2018-12-06T04:18:56.124Z,5.60
2018-12-06T04:23:58.823Z,5.70
2018-12-06T04:26:27.039Z,5.70
2018-12-06T04:28:55.084Z,5.80
2018-12-06T04:31:23.260Z,5.80
2018-12-06T04:33:51.383Z,5.80
2018-12-06T04:36:19.519Z,5.80
2018-12-06T04:38:47.624Z,5.90
2018-12-06T04:41:15.792Z,5.80
2018-12-06T04:43:43.950Z,5.80
2018-12-06T04:46:12.023Z,5.90
2018-12-06T04:48:40.085Z,5.80
2018-12-06T04:51:08.227Z,5.90
2018-12-06T04:53:36.427Z,5.90
2018-12-06T04:56:04.512Z,5.90
2018-12-06T04:58:32.781Z,5.90
2018-12-06T05:01:00.954Z,5.90
2018-12-06T05:03:29.107Z,5.90
2018-12-06T05:05:57.237Z,5.90
2018-12-06T05:08:26.184Z,5.90
2018-12-06T05:10:54.256Z,5.90
2018-12-06T05:13:22.296Z,5.90
2018-12-06T05:15:50.377Z,6.00
2018-12-06T05:18:18.581Z,5.90
2018-12-06T05:20:46.687Z,5.90
2018-12-06T05:23:14.887Z,6.00
2018-12-06T05:25:43.136Z,5.90
2018-12-06T05:28:11.287Z,6.00
2018-12-06T05:30:39.432Z,5.90
2018-12-06T05:33:07.615Z,5.90
2018-12-06T05:35:35.772Z,6.00
2018-12-06T05:38:03.894Z,6.00
2018-12-06T05:40:32.019Z,6.00
2018-12-06T05:43:00.052Z,6.10
2018-12-06T05:45:28.139Z,6.10
2018-12-06T05:47:56.234Z,6.00
2018-12-06T05:50:24.333Z,6.00
2018-12-06T05:52:52.451Z,6.00
2018-12-06T05:55:20.720Z,6.00
2018-12-06T05:57:48.944Z,6.00
2018-12-06T06:00:17.022Z,6.10
2018-12-06T06:02:45.190Z,6.10
2018-12-06T06:05:13.353Z,6.20
2018-12-06T06:07:41.425Z,6.20
2018-12-06T06:10:09.555Z,6.30
2018-12-06T06:12:37.663Z,6.30
2018-12-06T06:15:06.099Z,6.40
2018-12-06T06:17:34.204Z,6.40
2018-12-06T06:20:02.766Z,6.40
2018-12-06T06:22:30.848Z,6.40
2018-12-06T06:24:58.988Z,6.50
2018-12-06T06:27:27.234Z,6.50
2018-12-06T06:29:55.472Z,6.60
2018-12-06T06:32:23.612Z,6.60
2018-12-06T06:34:51.686Z,6.60
2018-12-06T06:37:19.836Z,6.60
2018-12-06T06:39:47.956Z,6.70
2018-12-06T06:42:16.854Z,6.60
2018-12-06T06:44:45.057Z,6.60
2018-12-06T06:47:13.142Z,6.60
2018-12-06T06:49:41.289Z,6.70
2018-12-06T06:52:09.411Z,6.70
2018-12-06T06:54:37.477Z,6.70
2018-12-06T06:57:06.080Z,6.70
2018-12-06T06:59:35.167Z,6.60
2018-12-06T07:02:03.483Z,6.70
2018-12-06T07:04:31.587Z,6.70
2018-12-06T07:06:59.647Z,6.70
2018-12-06T07:09:27.753Z,6.70
2018-12-06T07:11:55.820Z,6.70
2018-12-06T07:14:24.160Z,6.70
2018-12-06T07:16:52.295Z,6.70
2018-12-06T07:19:20.478Z,6.70
2018-12-06T07:21:48.594Z,6.70
2018-12-06T07:24:16.836Z,6.70
2018-12-06T07:26:45.034Z,6.70
2018-12-06T07:29:13.381Z,6.80
2018-12-06T07:31:41.525Z,6.80
2018-12-06T07:34:09.674Z,6.80
2018-12-06T07:36:37.821Z,6.80
2018-12-06T07:39:07.703Z,6.80
2018-12-06T07:41:35.796Z,6.80
2018-12-06T07:44:04.483Z,6.90
2018-12-06T07:46:33.723Z,7.00
2018-12-06T07:49:01.834Z,6.90
2018-12-06T07:51:29.854Z,6.90
2018-12-06T07:53:58.050Z,7.00
2018-12-06T07:56:26.097Z,7.00
2018-12-06T07:58:54.123Z,7.00
2018-12-06T08:01:22.223Z,7.00
2018-12-06T08:03:50.343Z,7.10
2018-12-06T08:06:18.923Z,7.20
2018-12-06T08:08:47.128Z,7.10
2018-12-06T08:11:15.162Z,7.20
2018-12-06T08:13:43.326Z,7.20
2018-12-06T08:16:11.508Z,7.20
2018-12-06T08:18:39.671Z,7.20
2018-12-06T08:21:07.770Z,7.50
2018-12-06T08:23:35.896Z,7.70
2018-12-06T08:26:04.110Z,7.80
2018-12-06T08:28:32.129Z,7.90
2018-12-06T08:31:01.167Z,7.90
2018-12-06T08:33:29.303Z,8.00
2018-12-06T08:35:57.477Z,8.00
2018-12-06T08:38:25.815Z,7.80
2018-12-06T08:40:53.955Z,7.80
2018-12-06T08:43:22.763Z,7.70
2018-12-06T08:45:50.961Z,7.70
2018-12-06T08:48:19.074Z,7.70
2018-12-06T08:50:47.300Z,7.60
2018-12-06T08:53:15.368Z,7.60
2018-12-06T08:55:43.527Z,7.60
2018-12-06T08:58:11.637Z,7.60
2018-12-06T09:00:39.744Z,7.70
2018-12-06T09:03:07.877Z,7.60
2018-12-06T09:05:35.969Z,7.60
2018-12-06T09:08:04.071Z,7.70
2018-12-06T09:10:32.283Z,7.60
2018-12-06T09:13:00.335Z,7.70
2018-12-06T09:15:28.514Z,7.60
2018-12-06T09:17:56.604Z,7.70
2018-12-06T09:20:24.904Z,7.80
2018-12-06T09:22:53.018Z,7.80
2018-12-06T09:25:21.588Z,7.80
2018-12-06T09:27:49.825Z,7.80
2018-12-06T09:30:17.988Z,7.70
2018-12-06T09:32:46.844Z,7.80
2018-12-06T09:35:14.956Z,7.80
2018-12-06T09:37:43.038Z,7.80
2018-12-06T09:40:11.175Z,7.90
2018-12-06T09:42:39.279Z,8.00
2018-12-06T09:45:08.335Z,8.10
2018-12-06T09:47:36.418Z,8.10
2018-12-06T09:50:05.540Z,8.10
2018-12-06T09:52:33.738Z,8.30
2018-12-06T09:55:01.786Z,8.30
2018-12-06T09:57:29.994Z,8.40
2018-12-06T09:59:58.047Z,8.30
2018-12-06T10:02:26.266Z,8.40
2018-12-06T10:04:54.479Z,8.30
2018-12-06T10:07:22.556Z,8.40
2018-12-06T10:09:50.740Z,8.40
2018-12-06T10:12:18.844Z,8.50
2018-12-06T10:14:46.945Z,8.60
2018-12-06T10:17:15.115Z,8.50
2018-12-06T10:19:43.125Z,8.60
2018-12-06T10:22:11.240Z,8.60
2018-12-06T10:24:39.373Z,8.60
2018-12-06T10:27:08.154Z,8.60
2018-12-06T10:29:36.278Z,8.60
2018-12-06T10:32:04.593Z,8.60
2018-12-06T10:34:32.766Z,8.60
2018-12-06T10:37:01.855Z,8.70
2018-12-06T10:39:29.969Z,8.70
2018-12-06T10:41:58.165Z,8.80
2018-12-06T10:44:29.115Z,8.90
2018-12-06T10:46:57.279Z,8.90
2018-12-06T10:49:25.499Z,9.00
2018-12-06T10:51:53.735Z,9.00
2018-12-06T10:54:21.806Z,9.00
2018-12-06T10:56:49.888Z,9.00
2018-12-06T10:59:18.027Z,8.90
2018-12-06T11:01:49.326Z,9.00
2018-12-06T11:04:17.758Z,8.90
2018-12-06T11:06:45.897Z,9.00
2018-12-06T11:09:14.310Z,9.00
2018-12-06T11:11:42.407Z,9.00
2018-12-06T11:14:10.516Z,9.10
2018-12-06T11:16:38.647Z,9.10
2018-12-06T11:19:06.835Z,9.10
2018-12-06T11:21:34.981Z,9.10
2018-12-06T11:24:03.184Z,9.00
2018-12-06T11:26:31.288Z,8.90
2018-12-06T11:28:59.384Z,8.90
2018-12-06T11:31:27.403Z,8.90
2018-12-06T11:33:55.669Z,8.90
2018-12-06T11:36:23.744Z,8.90
2018-12-06T11:38:51.882Z,9.00
2018-12-06T11:41:26.822Z,9.00
2018-12-06T11:43:54.903Z,9.00
2018-12-06T11:46:23.127Z,9.00
2018-12-06T11:48:51.191Z,9.10
2018-12-06T11:51:19.245Z,9.20
2018-12-06T11:53:47.387Z,9.20
2018-12-06T11:56:15.503Z,9.20
2018-12-06T11:58:43.595Z,9.20
2018-12-06T12:01:11.787Z,9.20
2018-12-06T12:03:40.530Z,9.20
2018-12-06T12:06:08.644Z,9.30
2018-12-06T12:08:36.742Z,9.20
2018-12-06T12:11:04.886Z,9.20
2018-12-06T12:13:32.899Z,9.20
2018-12-06T12:16:01.052Z,9.20
2018-12-06T12:18:29.143Z,9.20
2018-12-06T12:20:57.219Z,9.20
2018-12-06T12:23:25.376Z,9.20
2018-12-06T12:25:54.377Z,9.20
2018-12-06T12:28:22.432Z,9.30
2018-12-06T12:30:50.601Z,9.30
2018-12-06T12:33:18.664Z,9.30
2018-12-06T12:35:46.735Z,9.30
2018-12-06T12:38:14.927Z,9.40
2018-12-06T12:40:42.955Z,9.40
2018-12-06T12:43:11.151Z,9.40
2018-12-06T12:45:39.247Z,9.40
2018-12-06T12:48:07.325Z,9.30
2018-12-06T12:50:35.473Z,9.30
2018-12-06T12:53:03.591Z,9.30
2018-12-06T12:55:31.683Z,9.30
2018-12-06T12:57:59.801Z,9.30
2018-12-06T13:00:27.858Z,9.20
2018-12-06T13:02:56.135Z,9.20
2018-12-06T13:05:24.775Z,9.20
2018-12-06T13:07:53.009Z,9.30
2018-12-06T13:10:21.063Z,9.30
2018-12-06T13:12:49.168Z,9.30
2018-12-06T13:15:17.224Z,9.30
2018-12-06T13:17:45.490Z,9.30
2018-12-06T13:20:13.545Z,9.30
2018-12-06T13:22:41.770Z,9.20
2018-12-06T13:25:09.872Z,9.30
2018-12-06T13:27:38.103Z,9.40
2018-12-06T13:30:06.315Z,9.30
2018-12-06T13:32:34.415Z,9.30
2018-12-06T13:35:02.483Z,9.40
2018-12-06T13:37:30.560Z,9.30
2018-12-06T13:39:58.624Z,9.30
2018-12-06T13:42:26.785Z,9.30
2018-12-06T13:44:54.914Z,9.30
2018-12-06T13:47:23.040Z,9.20
2018-12-06T13:49:51.155Z,9.20
2018-12-06T13:52:19.218Z,9.30
2018-12-06T13:54:47.399Z,9.30
2018-12-06T13:57:15.541Z,9.30
2018-12-06T13:59:43.730Z,9.30
2018-12-06T14:02:11.875Z,9.40
2018-12-06T14:04:39.940Z,9.40
2018-12-06T14:07:07.997Z,9.40
2018-12-06T14:09:36.111Z,9.40
2018-12-06T14:12:04.204Z,9.40
2018-12-06T14:14:32.548Z,9.40
2018-12-06T14:17:00.613Z,9.40
2018-12-06T14:19:28.650Z,9.50
2018-12-06T14:21:56.799Z,9.50
2018-12-06T14:24:24.905Z,9.50
2018-12-06T14:26:53.141Z,9.60
2018-12-06T14:29:21.490Z,9.60
2018-12-06T14:31:49.651Z,9.60
2018-12-06T14:34:17.764Z,9.50
2018-12-06T14:36:45.854Z,9.60
2018-12-06T14:39:13.967Z,9.60
2018-12-06T14:41:42.098Z,9.60
2018-12-06T14:44:10.178Z,9.60
2018-12-06T14:46:38.339Z,9.60
2018-12-06T14:49:06.392Z,9.60
2018-12-06T14:51:34.503Z,9.70
2018-12-06T14:54:02.618Z,9.60
2018-12-06T14:56:30.811Z,9.60
2018-12-06T14:58:58.956Z,9.60
2018-12-06T15:01:27.023Z,9.60
2018-12-06T15:03:55.137Z,9.60
2018-12-06T15:06:23.499Z,9.60
2018-12-06T15:08:51.580Z,9.60
2018-12-06T15:11:19.635Z,9.60
2018-12-06T15:13:47.790Z,9.60
2018-12-06T15:16:15.935Z,9.70
2018-12-06T15:18:44.137Z,9.70
2018-12-06T15:21:37.829Z,9.70
2018-12-06T15:24:05.944Z,9.80
2018-12-06T15:26:33.999Z,9.80
2018-12-06T15:29:02.187Z,9.80
2018-12-06T15:31:30.859Z,9.80
2018-12-06T15:33:59.065Z,9.80
2018-12-06T15:36:27.233Z,9.90
2018-12-06T15:38:55.318Z,9.90
2018-12-06T15:41:23.456Z,9.90
2018-12-06T15:43:51.548Z,9.90
2018-12-06T15:46:19.801Z,9.90
2018-12-06T15:48:48.010Z,10.00
2018-12-06T15:51:16.172Z,10.00
2018-12-06T15:53:44.260Z,10.00
2018-12-06T15:56:12.375Z,10.10
2018-12-06T15:58:40.432Z,10.10
2018-12-06T16:01:08.650Z,10.10
2018-12-06T16:03:36.747Z,10.10
2018-12-06T16:06:04.821Z,10.00
2018-12-06T16:08:32.915Z,10.10
2018-12-06T16:11:01.037Z,10.20
2018-12-06T16:13:29.234Z,10.10
2018-12-06T16:15:57.293Z,10.10
2018-12-06T16:18:25.468Z,10.20
2018-12-06T16:20:53.520Z,10.20
2018-12-06T16:23:21.617Z,10.20
2018-12-06T16:25:49.821Z,10.20
2018-12-06T16:28:17.968Z,10.20
2018-12-06T16:30:46.172Z,10.20
2018-12-06T16:33:14.384Z,10.30
2018-12-06T16:35:42.513Z,10.20
2018-12-06T16:38:10.592Z,10.30
2018-12-06T16:40:38.737Z,10.30
2018-12-06T16:43:06.990Z,10.40
2018-12-06T16:45:35.089Z,10.40
2018-12-06T16:48:03.192Z,10.40
2018-12-06T16:50:31.379Z,10.40
2018-12-06T16:52:59.471Z,10.50
2018-12-06T16:55:27.571Z,10.60
2018-12-06T16:57:55.634Z,10.60
2018-12-06T17:00:23.830Z,10.70
2018-12-06T17:02:51.920Z,10.70
2018-12-06T17:05:20.050Z,10.80
2018-12-06T17:07:48.123Z,10.80
2018-12-06T17:10:16.208Z,10.80
2018-12-06T17:12:44.468Z,10.80
2018-12-06T17:15:12.556Z,10.80
2018-12-06T17:17:40.608Z,10.80
2018-12-06T17:20:08.774Z,10.90
2018-12-06T17:22:37.021Z,10.90
2018-12-06T17:25:06.585Z,10.90
2018-12-06T17:27:34.657Z,10.90
2018-12-06T17:30:03.183Z,11.00
2018-12-06T17:32:31.490Z,11.00
2018-12-06T17:34:59.682Z,11.00
2018-12-06T17:37:27.713Z,11.00
2018-12-06T17:39:55.810Z,11.00
2018-12-06T17:42:23.819Z,11.00
2018-12-06T17:44:51.932Z,11.00
2018-12-06T17:47:20.019Z,11.00
2018-12-06T17:49:48.116Z,11.10
2018-12-06T17:52:16.155Z,11.10
2018-12-06T17:54:44.392Z,11.10
2018-12-06T17:57:12.455Z,11.10
2018-12-06T17:59:41.719Z,11.10
2018-12-06T18:02:10.491Z,11.10
2018-12-06T18:04:38.592Z,11.10
2018-12-06T18:07:06.687Z,11.10
2018-12-06T18:09:35.136Z,11.10
2018-12-06T18:12:03.355Z,11.10
2018-12-06T18:14:31.469Z,11.10
2018-12-06T18:16:59.679Z,11.10
2018-12-06T18:19:27.748Z,11.20
2018-12-06T18:21:55.759Z,11.20
2018-12-06T18:24:24.786Z,11.20
2018-12-06T18:26:52.899Z,11.50
2018-12-06T18:29:20.994Z,11.40
2018-12-06T18:31:49.163Z,11.30
2018-12-06T18:34:17.231Z,11.30
2018-12-06T18:36:45.399Z,11.20
2018-12-06T18:39:13.599Z,11.30
2018-12-06T18:41:41.788Z,11.30
2018-12-06T18:44:09.935Z,11.30
2018-12-06T18:46:38.051Z,11.30
2018-12-06T18:49:06.136Z,11.30
2018-12-06T18:51:34.267Z,11.30
2018-12-06T18:54:33.187Z,11.30
2018-12-06T18:57:01.313Z,11.40
2018-12-06T18:59:29.438Z,11.30
2018-12-06T19:01:57.667Z,11.30
2018-12-06T19:04:25.751Z,11.30
2018-12-06T19:06:53.911Z,11.40
2018-12-06T19:09:22.395Z,11.40
2018-12-06T19:11:50.716Z,11.40
2018-12-06T19:14:22.057Z,11.40
2018-12-06T19:16:48.960Z,11.40
2018-12-06T19:19:17.047Z,11.50
2018-12-06T19:21:45.139Z,11.50
2018-12-06T19:24:13.250Z,11.50
2018-12-06T19:26:41.429Z,11.50
2018-12-06T19:29:10.036Z,11.50
2018-12-06T19:31:38.222Z,11.50
2018-12-06T19:34:06.322Z,11.60
2018-12-06T19:36:34.411Z,11.60
2018-12-06T19:39:02.749Z,11.60
2018-12-06T19:41:30.839Z,11.50
2018-12-06T19:43:58.972Z,11.60
2018-12-06T19:46:27.142Z,11.60
2018-12-06T19:48:55.275Z,11.60
2018-12-06T19:51:23.408Z,11.60
2018-12-06T19:53:51.475Z,11.60
2018-12-06T19:56:19.767Z,11.60
2018-12-06T19:58:47.898Z,11.60
2018-12-06T20:01:16.159Z,11.60
2018-12-06T20:03:44.277Z,11.60
2018-12-06T20:06:12.449Z,11.70
2018-12-06T20:08:40.512Z,11.70
2018-12-06T20:11:08.623Z,11.60
2018-12-06T20:13:36.729Z,11.60
2018-12-06T20:16:04.944Z,11.60
2018-12-06T20:18:33.027Z,11.70
2018-12-06T20:21:01.085Z,11.70
2018-12-06T20:23:29.613Z,11.60
2018-12-06T20:25:57.747Z,11.70
2018-12-06T20:28:26.590Z,11.70
2018-12-06T20:30:55.084Z,11.60
2018-12-06T20:33:23.514Z,11.60
2018-12-06T20:35:51.629Z,11.70
2018-12-06T20:38:19.740Z,11.60
2018-12-06T20:40:47.855Z,11.60
2018-12-06T20:43:16.439Z,11.70
2018-12-06T20:45:44.586Z,11.60
2018-12-06T20:48:12.679Z,11.60
2018-12-06T20:50:40.879Z,11.60
2018-12-06T20:53:09.003Z,11.60
2018-12-06T20:55:37.923Z,11.60
2018-12-06T20:58:06.096Z,11.60
2018-12-06T21:00:34.455Z,11.70
2018-12-06T21:03:02.680Z,11.70
2018-12-06T21:05:30.848Z,11.70
2018-12-06T21:07:58.992Z,11.70
2018-12-06T21:10:27.036Z,11.70
2018-12-06T21:12:55.191Z,11.70
2018-12-06T21:15:23.251Z,11.70
2018-12-06T21:17:51.379Z,11.70
2018-12-06T21:20:19.524Z,11.70
2018-12-06T21:22:47.739Z,11.70
2018-12-06T21:25:15.790Z,11.70
2018-12-06T21:27:43.970Z,11.70
2018-12-06T21:30:12.217Z,11.80
2018-12-06T21:32:40.350Z,11.80
2018-12-06T21:35:08.620Z,11.80
2018-12-06T21:37:36.675Z,11.70
2018-12-06T21:40:05.820Z,11.80
2018-12-06T21:42:34.056Z,11.80
2018-12-06T21:45:02.118Z,11.80
2018-12-06T21:47:30.218Z,11.80
2018-12-06T21:49:58.390Z,11.80
2018-12-06T21:52:26.646Z,11.90
2018-12-06T21:54:54.697Z,11.80
2018-12-06T21:57:22.919Z,11.80
2018-12-06T21:59:50.955Z,11.80
2018-12-06T22:02:24.784Z,11.90
2018-12-06T22:04:52.914Z,11.90
2018-12-06T22:07:21.002Z,11.90
2018-12-06T22:09:49.708Z,11.90
2018-12-06T22:12:17.820Z,12.00
2018-12-06T22:14:45.902Z,11.90
2018-12-06T22:17:13.997Z,11.90
2018-12-06T22:19:42.102Z,12.00
2018-12-06T22:22:10.175Z,12.00
2018-12-06T22:24:38.448Z,12.00
2018-12-06T22:27:06.494Z,12.00
2018-12-06T22:29:34.628Z,12.00
2018-12-06T22:32:02.840Z,12.10
2018-12-06T22:34:30.931Z,12.10
2018-12-06T22:36:59.026Z,12.10
2018-12-06T22:39:27.186Z,12.10
2018-12-06T22:41:55.214Z,12.10
2018-12-06T22:44:23.239Z,12.20
2018-12-06T22:46:51.309Z,12.10
2018-12-06T22:49:19.459Z,12.10
2018-12-06T22:51:47.482Z,12.10
2018-12-06T22:54:15.712Z,12.10
2018-12-06T22:56:43.856Z,12.10
2018-12-06T22:59:11.864Z,12.10
2018-12-06T23:01:40.217Z,12.10
2018-12-06T23:04:08.936Z,12.10
2018-12-06T23:06:37.047Z,12.20
2018-12-06T23:09:08.582Z,12.10
2018-12-06T23:11:37.486Z,12.20
2018-12-06T23:14:05.766Z,12.20
2018-12-06T23:16:33.874Z,12.10
2018-12-06T23:19:02.280Z,12.10
2018-12-06T23:21:30.539Z,12.10
2018-12-06T23:23:58.878Z,12.10
2018-12-06T23:26:26.936Z,12.20
2018-12-06T23:28:55.083Z,12.20
2018-12-06T23:31:23.171Z,12.20
2018-12-06T23:33:51.298Z,12.10
2018-12-06T23:36:19.755Z,12.10
2018-12-06T23:38:47.789Z,12.10
2018-12-06T23:41:15.984Z,12.20
2018-12-06T23:43:44.094Z,12.20
2018-12-06T23:46:12.152Z,12.10
2018-12-06T23:48:40.279Z,12.10
2018-12-06T23:51:19.903Z,12.10
2018-12-06T23:53:47.979Z,12.10
2018-12-06T23:56:16.105Z,12.20
2018-12-06T23:58:44.123Z,12.10
